| time (UTC) | temp F | wind direction | speed MPH | gust MPH | rain 1hr in | rain 24hr in | rain mn in | humidity % | barometer mb |
| 20260903171118 | 84 | 0 | 2.0 | 10.0 | 0.00 | 0.00 | 0.00 | 81 | 1013.9 |
| 20260903170618 | 85 | 0 | 3.0 | 10.0 | 0.00 | 0.00 | 0.00 | 82 | 1014.5 |
| 20260903170123 | 87 | 261 | 1.0 | 7.0 | 0.00 | 0.00 | 0.00 | 82 | 1014.2 |
| 20260903170119 | 86 | 0 | 3.0 | 10.0 | 0.00 | 0.00 | 0.00 | 83 | 1014.4 |
| 20260903165118 | 87 | 156 | 0.0 | 3.0 | 0.00 | 0.00 | 0.00 | 81 | 1013.9 |
| 20260903164618 | 87 | 156 | 1.0 | 5.0 | 0.00 | 0.00 | 0.00 | 81 | 1013.9 |
| 20260903164119 | 88 | 156 | 2.0 | 5.0 | 0.00 | 0.00 | 0.00 | 80 | 1014.0 |
| 20260903163621 | 88 | 157 | 2.0 | 5.0 | 0.00 | 0.00 | 0.00 | 79 | 1014.0 |
| 20260903163115 | 88 | 148 | 1.0 | 5.0 | 0.00 | 0.00 | 0.00 | 80 | 1013.9 |
| 20260903162615 | 88 | 165 | 1.0 | 4.0 | 0.00 | 0.00 | 0.00 | 81 | 1013.9 |
| 20260903162115 | 87 | 165 | 1.0 | 4.0 | 0.00 | 0.00 | 0.00 | 82 | 1013.9 |
| 20260903161617 | 87 | 176 | 1.0 | 2.0 | 0.00 | 0.00 | 0.00 | 83 | 1014.0 |
| 20260903161114 | 86 | 136 | 1.0 | 3.0 | 0.00 | 0.00 | 0.00 | 84 | 1014.0 |
| 20260903160614 | 85 | 135 | 1.0 | 5.0 | 0.00 | 0.00 | 0.00 | 86 | 1014.1 |
| 20260903160115 | 84 | 161 | 1.0 | 5.0 | 0.00 | 0.00 | 0.00 | 87 | 1014.1 |
| 20260903155845 | 83 | 140 | 1.0 | 4.0 | 0.00 | 0.00 | 0.00 | 88 | 1014.0 |
| 20260903155115 | 84 | 129 | 1.0 | 3.0 | 0.00 | 0.00 | 0.00 | 88 | 1013.9 |
| 20260903154611 | 83 | 150 | 1.0 | 3.0 | 0.00 | 0.00 | 0.00 | 88 | 1013.9 |
| 20260903154344 | 83 | 200 | 1.0 | 3.0 | 0.00 | 0.00 | 0.00 | 88 | 1013.9 |
| 20260903153842 | 83 | 198 | 0.0 | 3.0 | 0.00 | 0.00 | 0.00 | 88 | 1013.8 |
| 20260903153114 | 83 | 197 | 0.0 | 2.0 | 0.00 | 0.00 | 0.00 | 88 | 1014.0 |
| 20260903152610 | 83 | 0 | 0.0 | 2.0 | 0.00 | 0.00 | 0.00 | 88 | 1014.0 |
| 20260903152110 | 83 | 0 | 0.0 | 2.0 | 0.00 | 0.00 | 0.00 | 88 | 1014.0 |
| 20260903151612 | 83 | 0 | 0.0 | 2.0 | 0.00 | 0.00 | 0.00 | 88 | 1014.0 |
| 20260903151112 | 83 | 0 | 0.0 | 2.0 | 0.00 | 0.00 | 0.00 | 88 | 1014.0 |
| 20260903150609 | 83 | 0 | 0.0 | 2.0 | 0.00 | 0.00 | 0.00 | 88 | 1014.1 |
| 20260903150108 | 83 | 0 | 0.0 | 2.0 | 0.00 | 0.00 | 0.00 | 88 | 1014.1 |
| 20260903145606 | 83 | 0 | 0.0 | 2.0 | 0.00 | 0.00 | 0.00 | 87 | 1014.1 |
| 20260903145103 | 83 | 0 | 0.0 | 1.0 | 0.00 | 0.00 | 0.00 | 87 | 1014.1 |
| 20260903144602 | 83 | 0 | 0.0 | 1.0 | 0.00 | 0.00 | 0.00 | 87 | 1014.3 |
| 20260903144103 | 83 | 0 | 0.0 | 1.0 | 0.00 | 0.00 | 0.00 | 87 | 1014.4 |
| 20260903143557 | 83 | 0 | 0.0 | 1.0 | 0.00 | 0.00 | 0.00 | 87 | 1014.3 |
| 20260903143326 | 83 | 0 | 0.0 | 1.0 | 0.00 | 0.00 | 0.00 | 87 | 1014.3 |
| 20260903142556 | 83 | 0 | 0.0 | 1.0 | 0.00 | 0.00 | 0.00 | 87 | 1014.3 |
| 20260903142056 | 83 | 0 | 0.0 | 0.0 | 0.00 | 0.00 | 0.00 | 87 | 1014.3 |
| 20260903141550 | 83 | 0 | 0.0 | 0.0 | 0.00 | 0.00 | 0.00 | 87 | 1014.3 |
| 20260903141049 | 83 | 0 | 0.0 | 0.0 | 0.00 | 0.00 | 0.00 | 87 | 1014.2 |
| 20260903140549 | 83 | 0 | 0.0 | 1.0 | 0.00 | 0.00 | 0.00 | 86 | 1014.2 |
| 20260903140320 | 83 | 0 | 0.0 | 1.0 | 0.00 | 0.00 | 0.00 | 86 | 1014.2 |
| 20260903135548 | 83 | 0 | 0.0 | 1.0 | 0.00 | 0.00 | 0.00 | 86 | 1014.2 |
| 20260903135050 | 83 | 0 | 0.0 | 1.0 | 0.00 | 0.00 | 0.00 | 86 | 1014.3 |
| 20260903134546 | 83 | 0 | 0.0 | 1.0 | 0.00 | 0.00 | 0.00 | 86 | 1014.2 |
| 20260903134047 | 83 | 0 | 0.0 | 1.0 | 0.00 | 0.00 | 0.00 | 86 | 1014.3 |
| 20260903133545 | 83 | 0 | 0.0 | 1.0 | 0.00 | 0.00 | 0.00 | 86 | 1014.3 |
| 20260903133042 | 83 | 0 | 0.0 | 1.0 | 0.00 | 0.00 | 0.00 | 86 | 1014.2 |
| 20260903132543 | 83 | 0 | 0.0 | 1.0 | 0.00 | 0.00 | 0.00 | 86 | 1014.2 |
| 20260903132043 | 83 | 0 | 0.0 | 1.0 | 0.00 | 0.00 | 0.00 | 86 | 1014.1 |
| 20260903131540 | 83 | 0 | 0.0 | 1.0 | 0.00 | 0.00 | 0.00 | 85 | 1014.1 |
| 20260903131038 | 83 | 0 | 0.0 | 2.0 | 0.00 | 0.00 | 0.00 | 85 | 1014.0 |
| 20260903130809 | 83 | 0 | 0.0 | 2.0 | 0.00 | 0.00 | 0.00 | 85 | 1014.0 |
| 20260903130036 | 83 | 0 | 0.0 | 2.0 | 0.00 | 0.00 | 0.00 | 85 | 1014.0 |
| 20260903125530 | 83 | 0 | 0.0 | 2.0 | 0.00 | 0.00 | 0.00 | 85 | 1014.0 |
| 20260903125030 | 83 | 0 | 0.0 | 1.0 | 0.00 | 0.00 | 0.00 | 85 | 1013.8 |
| 20260903124801 | 83 | 0 | 0.0 | 2.0 | 0.00 | 0.00 | 0.00 | 85 | 1013.6 |
| 20260903124031 | 83 | 0 | 0.0 | 2.0 | 0.00 | 0.00 | 0.00 | 85 | 1013.5 |
| 20260903123529 | 83 | 0 | 0.0 | 4.0 | 0.00 | 0.00 | 0.00 | 85 | 1013.5 |
| 20260903123026 | 83 | 0 | 0.0 | 4.0 | 0.00 | 0.00 | 0.00 | 85 | 1013.4 |
| 20260903122525 | 83 | 0 | 1.0 | 5.0 | 0.00 | 0.00 | 0.00 | 85 | 1013.3 |
| 20260903122027 | 83 | 0 | 1.0 | 5.0 | 0.00 | 0.00 | 0.00 | 85 | 1013.3 |
| 20260903121754 | 83 | 0 | 1.0 | 3.0 | 0.00 | 0.00 | 0.00 | 85 | 1013.2 |
| 20260903121026 | 83 | 0 | 1.0 | 3.0 | 0.00 | 0.00 | 0.00 | 84 | 1013.2 |
| 20260903120521 | 83 | 0 | 0.0 | 3.0 | 0.00 | 0.00 | 0.00 | 84 | 1013.2 |
| 20260903120022 | 83 | 0 | 0.0 | 3.0 | 0.00 | 0.00 | 0.00 | 84 | 1013.2 |
| 20260903115523 | 84 | 0 | 0.0 | 2.0 | 0.00 | 0.00 | 0.00 | 84 | 1013.2 |
| 20260903115023 | 84 | 0 | 0.0 | 2.0 | 0.00 | 0.00 | 0.00 | 84 | 1013.2 |
| 20260903114520 | 84 | 0 | 0.0 | 2.0 | 0.00 | 0.00 | 0.00 | 84 | 1013.1 |
| 20260903114020 | 84 | 0 | 0.0 | 3.0 | 0.00 | 0.00 | 0.00 | 83 | 1013.1 |
| 20260903113521 | 84 | 0 | 1.0 | 3.0 | 0.00 | 0.00 | 0.00 | 83 | 1013.1 |
| 20260903113020 | 84 | 0 | 0.0 | 3.0 | 0.00 | 0.00 | 0.00 | 83 | 1013.2 |
| 20260903112518 | 84 | 0 | 0.0 | 3.0 | 0.00 | 0.00 | 0.00 | 83 | 1013.2 |
| 20260903112020 | 84 | 0 | 0.0 | 3.0 | 0.00 | 0.00 | 0.00 | 83 | 1013.2 |
| 20260903111517 | 84 | 0 | 0.0 | 3.0 | 0.00 | 0.00 | 0.00 | 83 | 1013.2 |
| 20260903111020 | 84 | 0 | 0.0 | 1.0 | 0.00 | 0.00 | 0.00 | 83 | 1013.2 |
| 20260903110517 | 84 | 0 | 0.0 | 1.0 | 0.00 | 0.00 | 0.00 | 83 | 1013.3 |
| 20260903110018 | 85 | 0 | 0.0 | 1.0 | 0.00 | 0.00 | 0.00 | 83 | 1013.3 |
| 20260903105517 | 85 | 0 | 0.0 | 4.0 | 0.00 | 0.00 | 0.00 | 83 | 1013.2 |
| 20260903105015 | 85 | 0 | 0.0 | 4.0 | 0.00 | 0.00 | 0.00 | 83 | 1013.1 |
| 20260903104516 | 85 | 0 | 1.0 | 4.0 | 0.00 | 0.00 | 0.00 | 83 | 1013.1 |
| 20260903104016 | 85 | 0 | 2.0 | 4.0 | 0.00 | 0.00 | 0.00 | 83 | 1013.0 |
| 20260903103748 | 85 | 0 | 1.0 | 4.0 | 0.00 | 0.00 | 0.00 | 83 | 1013.0 |
| 20260903103015 | 85 | 0 | 1.0 | 5.0 | 0.00 | 0.00 | 0.00 | 83 | 1012.9 |
| 20260903102517 | 85 | 0 | 1.0 | 5.0 | 0.00 | 0.00 | 0.00 | 82 | 1012.9 |
| 20260903102246 | 85 | 0 | 1.0 | 5.0 | 0.00 | 0.00 | 0.00 | 82 | 1012.9 |
| 20260903101513 | 85 | 0 | 1.0 | 5.0 | 0.00 | 0.00 | 0.00 | 82 | 1012.9 |
| 20260903101015 | 85 | 0 | 1.0 | 5.0 | 0.00 | 0.00 | 0.00 | 82 | 1012.9 |
| 20260903100514 | 85 | 0 | 1.0 | 4.0 | 0.00 | 0.00 | 0.00 | 82 | 1012.9 |
| 20260903100013 | 85 | 0 | 0.0 | 4.0 | 0.00 | 0.00 | 0.00 | 82 | 1012.9 |
| 20260903095514 | 85 | 0 | 0.0 | 2.0 | 0.00 | 0.00 | 0.00 | 82 | 1012.8 |
| 20260903095014 | 85 | 0 | 1.0 | 4.0 | 0.00 | 0.00 | 0.00 | 82 | 1012.8 |
| 20260903094738 | 85 | 0 | 1.0 | 4.0 | 0.00 | 0.00 | 0.00 | 82 | 1012.8 |
| 20260903094005 | 85 | 0 | 1.0 | 4.0 | 0.00 | 0.00 | 0.00 | 82 | 1012.9 |
| 20260903093505 | 85 | 0 | 1.0 | 5.0 | 0.00 | 0.00 | 0.00 | 82 | 1012.9 |
| 20260903093005 | 85 | 0 | 1.0 | 5.0 | 0.00 | 0.00 | 0.00 | 82 | 1012.9 |
| 20260903092502 | 85 | 0 | 1.0 | 5.0 | 0.00 | 0.00 | 0.00 | 82 | 1012.9 |
| 20260903092002 | 85 | 0 | 2.0 | 5.0 | 0.00 | 0.00 | 0.00 | 82 | 1012.9 |
| 20260903091502 | 85 | 0 | 1.0 | 4.0 | 0.00 | 0.00 | 0.00 | 82 | 1012.9 |
| 20260903091008 | 85 | 0 | 1.0 | 4.0 | 0.00 | 0.00 | 0.00 | 82 | 1012.9 |
| 20260903090502 | 85 | 0 | 1.0 | 4.0 | 0.00 | 0.00 | 0.00 | 82 | 1012.9 |
| 20260903090003 | 85 | 0 | 1.0 | 3.0 | 0.00 | 0.00 | 0.00 | 82 | 1012.9 |
| 20260903085502 | 85 | 0 | 1.0 | 4.0 | 0.00 | 0.00 | 0.00 | 82 | 1012.9 |
| 20260903084959 | 85 | 0 | 1.0 | 4.0 | 0.00 | 0.00 | 0.00 | 82 | 1012.8 |
| 20260903084501 | 85 | 0 | 1.0 | 4.0 | 0.00 | 0.00 | 0.00 | 82 | 1012.8 |
| 20260903083957 | 85 | 0 | 2.0 | 4.0 | 0.00 | 0.00 | 0.00 | 82 | 1012.8 |
| 20260903083457 | 85 | 0 | 1.0 | 4.0 | 0.00 | 0.00 | 0.00 | 82 | 1012.8 |
| 20260903082957 | 85 | 0 | 1.0 | 8.0 | 0.00 | 0.00 | 0.00 | 82 | 1012.7 |
| 20260903082728 | 85 | 0 | 1.0 | 8.0 | 0.00 | 0.00 | 0.00 | 82 | 1012.7 |
| 20260903081956 | 85 | 0 | 1.0 | 5.0 | 0.00 | 0.00 | 0.00 | 82 | 1012.7 |
| 20260903081728 | 85 | 0 | 1.0 | 4.0 | 0.00 | 0.00 | 0.00 | 82 | 1012.7 |
| 20260903080959 | 85 | 0 | 1.0 | 4.0 | 0.00 | 0.00 | 0.00 | 82 | 1012.7 |
| 20260903080456 | 85 | 0 | 1.0 | 5.0 | 0.00 | 0.00 | 0.00 | 82 | 1012.7 |
| 20260903075955 | 85 | 0 | 1.0 | 5.0 | 0.00 | 0.00 | 0.00 | 82 | 1012.8 |
| 20260903075453 | 85 | 0 | 2.0 | 5.0 | 0.00 | 0.00 | 0.00 | 82 | 1012.7 |
| 20260903074955 | 85 | 0 | 1.0 | 5.0 | 0.00 | 0.00 | 0.00 | 82 | 1012.7 |
| 20260903074452 | 85 | 0 | 1.0 | 4.0 | 0.00 | 0.00 | 0.00 | 82 | 1012.7 |
| 20260903073954 | 85 | 0 | 2.0 | 6.0 | 0.00 | 0.00 | 0.00 | 82 | 1012.7 |
| 20260903073453 | 85 | 0 | 2.0 | 6.0 | 0.00 | 0.00 | 0.00 | 82 | 1012.7 |
| 20260903072951 | 85 | 0 | 2.0 | 6.0 | 0.00 | 0.00 | 0.00 | 82 | 1012.7 |
| 20260903072453 | 85 | 0 | 2.0 | 6.0 | 0.00 | 0.00 | 0.00 | 82 | 1012.8 |
| 20260903071953 | 85 | 0 | 2.0 | 6.0 | 0.00 | 0.00 | 0.00 | 82 | 1012.8 |
| 20260903071453 | 85 | 0 | 1.0 | 5.0 | 0.00 | 0.00 | 0.00 | 82 | 1012.9 |
| 20260903070951 | 85 | 0 | 1.0 | 3.0 | 0.00 | 0.00 | 0.00 | 82 | 1012.9 |
| 20260903070453 | 85 | 0 | 1.0 | 3.0 | 0.00 | 0.00 | 0.00 | 82 | 1012.9 |
| 20260903065950 | 85 | 0 | 1.0 | 5.0 | 0.00 | 0.00 | 0.00 | 82 | 1013.1 |
| 20260903065450 | 85 | 0 | 1.0 | 5.0 | 0.00 | 0.00 | 0.00 | 82 | 1013.1 |
| 20260903064948 | 85 | 0 | 2.0 | 5.0 | 0.00 | 0.00 | 0.00 | 82 | 1013.2 |
| 20260903064448 | 85 | 0 | 1.0 | 5.0 | 0.00 | 0.00 | 0.00 | 82 | 1013.3 |
| 20260903064220 | 85 | 0 | 1.0 | 4.0 | 0.00 | 0.00 | 0.00 | 82 | 1013.3 |
| 20260903063447 | 85 | 0 | 1.0 | 4.0 | 0.00 | 0.00 | 0.00 | 82 | 1013.4 |
| 20260903062947 | 85 | 0 | 1.0 | 4.0 | 0.00 | 0.00 | 0.00 | 82 | 1013.4 |
| 20260903062447 | 85 | 0 | 1.0 | 5.0 | 0.00 | 0.00 | 0.00 | 82 | 1013.5 |
| 20260903061946 | 85 | 0 | 1.0 | 5.0 | 0.00 | 0.00 | 0.00 | 82 | 1013.6 |
| 20260903061446 | 85 | 0 | 1.0 | 4.0 | 0.00 | 0.00 | 0.00 | 82 | 1013.5 |
| 20260903060947 | 85 | 0 | 1.0 | 4.0 | 0.00 | 0.00 | 0.00 | 81 | 1013.5 |
| 20260903060446 | 85 | 0 | 1.0 | 3.0 | 0.00 | 0.00 | 0.00 | 81 | 1013.6 |
| 20260903055945 | 85 | 0 | 1.0 | 2.0 | 0.00 | 0.00 | 0.00 | 81 | 1013.7 |
| 20260903055718 | 85 | 0 | 1.0 | 3.0 | 0.00 | 0.00 | 0.00 | 81 | 1013.8 |
| 20260903054951 | 86 | 0 | 0.0 | 3.0 | 0.00 | 0.00 | 0.00 | 81 | 1013.9 |
| 20260903054945 | 86 | 0 | 0.0 | 3.0 | 0.00 | 0.00 | 0.00 | 81 | 1013.8 |
| 20260903053947 | 86 | 0 | 0.0 | 3.0 | 0.00 | 0.00 | 0.00 | 81 | 1013.9 |
| 20260903053439 | 86 | 0 | 1.0 | 4.0 | 0.00 | 0.00 | 0.00 | 81 | 1014.0 |
| 20260903052931 | 86 | 0 | 1.0 | 4.0 | 0.00 | 0.00 | 0.00 | 81 | 1014.0 |
| 20260903052700 | 86 | 0 | 1.0 | 3.0 | 0.00 | 0.00 | 0.00 | 81 | 1014.0 |
| 20260903051929 | 86 | 0 | 1.0 | 4.0 | 0.00 | 0.00 | 0.00 | 81 | 1014.0 |
| 20260903051426 | 86 | 0 | 1.0 | 4.0 | 0.00 | 0.00 | 0.00 | 81 | 1014.1 |
| 20260903050926 | 86 | 0 | 1.0 | 8.0 | 0.00 | 0.00 | 0.00 | 81 | 1014.1 |
| 20260903050422 | 86 | 0 | 2.0 | 8.0 | 0.00 | 0.00 | 0.00 | 81 | 1014.1 |
| 20260903045923 | 86 | 0 | 2.0 | 8.0 | 0.00 | 0.00 | 0.00 | 81 | 1014.1 |
| 20260903045419 | 86 | 0 | 2.0 | 8.0 | 0.00 | 0.00 | 0.00 | 81 | 1014.1 |
| 20260903045150 | 86 | 0 | 2.0 | 8.0 | 0.00 | 0.00 | 0.00 | 81 | 1014.0 |
| 20260903044650 | 86 | 0 | 1.0 | 5.0 | 0.00 | 0.00 | 0.00 | 81 | 1014.0 |
| 20260903043916 | 86 | 0 | 2.0 | 5.0 | 0.00 | 0.00 | 0.00 | 81 | 1014.0 |
| 20260903043647 | 86 | 0 | 2.0 | 6.0 | 0.00 | 0.00 | 0.00 | 81 | 1014.1 |
| 20260903042916 | 86 | 0 | 1.0 | 6.0 | 0.00 | 0.00 | 0.00 | 81 | 1014.0 |
| 20260903042415 | 87 | 0 | 2.0 | 6.0 | 0.00 | 0.00 | 0.00 | 81 | 1014.0 |
| 20260903041915 | 87 | 0 | 3.0 | 6.0 | 0.00 | 0.00 | 0.00 | 81 | 1013.9 |
| 20260903041416 | 87 | 0 | 2.0 | 6.0 | 0.00 | 0.00 | 0.00 | 81 | 1014.0 |
| 20260903040911 | 87 | 0 | 2.0 | 9.0 | 0.00 | 0.00 | 0.00 | 80 | 1014.0 |
| 20260903040407 | 87 | 0 | 2.0 | 9.0 | 0.00 | 0.00 | 0.00 | 80 | 1014.1 |
| 20260903040135 | 87 | 0 | 2.0 | 6.0 | 0.00 | 0.00 | 0.00 | 80 | 1014.0 |
| 20260903035405 | 87 | 0 | 2.0 | 9.0 | 0.00 | 0.00 | 0.00 | 80 | 1014.0 |
| 20260903034906 | 87 | 0 | 2.0 | 9.0 | 0.00 | 0.00 | 0.00 | 80 | 1013.9 |
| 20260903034405 | 87 | 0 | 2.0 | 9.0 | 0.00 | 0.00 | 0.00 | 80 | 1013.8 |
| 20260903033900 | 87 | 0 | 2.0 | 10.0 | 0.00 | 0.00 | 0.00 | 80 | 1013.8 |
| 20260903033353 | 87 | 0 | 3.0 | 10.0 | 0.00 | 0.00 | 0.00 | 80 | 1013.7 |
| 20260903032852 | 87 | 0 | 3.0 | 11.0 | 0.00 | 0.00 | 0.00 | 80 | 1013.7 |
| 20260903032353 | 87 | 0 | 4.0 | 11.0 | 0.00 | 0.00 | 0.00 | 80 | 1013.7 |
| 20260903031846 | 87 | 0 | 3.0 | 12.0 | 0.00 | 0.00 | 0.00 | 80 | 1013.7 |
| 20260903031345 | 87 | 0 | 3.0 | 12.0 | 0.00 | 0.00 | 0.00 | 80 | 1013.7 |
| 20260903031119 | 87 | 0 | 3.0 | 12.0 | 0.00 | 0.00 | 0.00 | 80 | 1013.5 |
| 20260903030345 | 87 | 0 | 4.0 | 13.0 | 0.00 | 0.00 | 0.00 | 80 | 1013.4 |
| 20260903025846 | 88 | 0 | 4.0 | 13.0 | 0.00 | 0.00 | 0.00 | 79 | 1013.3 |
| 20260903025347 | 88 | 0 | 3.0 | 13.0 | 0.00 | 0.00 | 0.00 | 79 | 1013.3 |
| 20260903024846 | 88 | 0 | 3.0 | 9.0 | 0.00 | 0.00 | 0.00 | 79 | 1013.2 |
| 20260903024615 | 88 | 0 | 3.0 | 9.0 | 0.00 | 0.00 | 0.00 | 79 | 1013.2 |
| 20260903024117 | 88 | 0 | 2.0 | 9.0 | 0.00 | 0.00 | 0.00 | 79 | 1013.3 |
| 20260903023345 | 88 | 0 | 1.0 | 6.0 | 0.00 | 0.00 | 0.00 | 78 | 1013.3 |
| 20260903022846 | 88 | 0 | 2.0 | 6.0 | 0.00 | 0.00 | 0.00 | 78 | 1013.1 |
| 20260903022346 | 88 | 0 | 2.0 | 6.0 | 0.00 | 0.00 | 0.00 | 77 | 1013.0 |
| 20260903021846 | 89 | 0 | 2.0 | 6.0 | 0.00 | 0.00 | 0.00 | 77 | 1012.8 |
| 20260903021342 | 89 | 0 | 1.0 | 8.0 | 0.00 | 0.00 | 0.00 | 76 | 1012.7 |
| 20260903021113 | 89 | 0 | 1.0 | 8.0 | 0.00 | 0.00 | 0.00 | 75 | 1012.7 |
| 20260903020342 | 89 | 0 | 2.0 | 8.0 | 0.00 | 0.00 | 0.00 | 74 | 1012.6 |
| 20260903015837 | 89 | 0 | 2.0 | 10.0 | 0.00 | 0.00 | 0.00 | 74 | 1012.5 |
| 20260903015339 | 89 | 0 | 2.0 | 10.0 | 0.00 | 0.00 | 0.00 | 73 | 1012.5 |
| 20260903014840 | 89 | 0 | 3.0 | 10.0 | 0.00 | 0.00 | 0.00 | 72 | 1012.4 |
| 20260903014337 | 89 | 0 | 3.0 | 10.0 | 0.00 | 0.00 | 0.00 | 72 | 1012.4 |
| 20260903013837 | 89 | 0 | 3.0 | 10.0 | 0.00 | 0.00 | 0.00 | 71 | 1012.5 |
| 20260903013610 | 89 | 0 | 3.0 | 11.0 | 0.00 | 0.00 | 0.00 | 70 | 1012.5 |
| 20260903012838 | 90 | 0 | 4.0 | 11.0 | 0.00 | 0.00 | 0.00 | 70 | 1012.3 |
| 20260903012339 | 90 | 0 | 3.0 | 11.0 | 0.00 | 0.00 | 0.00 | 68 | 1012.3 |
| 20260903011838 | 90 | 0 | 3.0 | 11.0 | 0.00 | 0.00 | 0.00 | 67 | 1012.3 |
| 20260903011337 | 90 | 0 | 2.0 | 8.0 | 0.00 | 0.00 | 0.00 | 66 | 1012.0 |
| 20260903011108 | 90 | 0 | 2.0 | 8.0 | 0.00 | 0.00 | 0.00 | 65 | 1012.0 |
| 20260903010332 | 90 | 0 | 2.0 | 9.0 | 0.00 | 0.00 | 0.00 | 64 | 1012.0 |
| 20260903005830 | 90 | 0 | 3.0 | 9.0 | 0.00 | 0.00 | 0.00 | 63 | 1011.8 |
| 20260903005332 | 90 | 0 | 4.0 | 8.0 | 0.00 | 0.00 | 0.00 | 63 | 1011.7 |
| 20260903004831 | 90 | 0 | 3.0 | 12.0 | 0.00 | 0.00 | 0.00 | 62 | 1011.7 |
| 20260903004605 | 91 | 0 | 3.0 | 12.0 | 0.00 | 0.00 | 0.00 | 63 | 1011.7 |
| 20260903003832 | 91 | 0 | 3.0 | 12.0 | 0.00 | 0.00 | 0.00 | 63 | 1011.7 |
| 20260903003332 | 91 | 0 | 4.0 | 12.0 | 0.00 | 0.00 | 0.00 | 63 | 1011.7 |
| 20260903002827 | 91 | 0 | 4.0 | 11.0 | 0.00 | 0.00 | 0.00 | 63 | 1011.7 |
| 20260903002328 | 91 | 0 | 4.0 | 11.0 | 0.00 | 0.00 | 0.00 | 63 | 1011.5 |
| 20260903001828 | 92 | 165 | 3.0 | 10.0 | 0.00 | 0.00 | 0.00 | 63 | 1011.5 |
| 20260903001328 | 92 | 161 | 3.0 | 9.0 | 0.00 | 0.00 | 0.00 | 63 | 1011.4 |
| 20260903000829 | 92 | 155 | 3.0 | 8.0 | 0.00 | 0.00 | 0.00 | 63 | 1011.2 |
| 20260903000329 | 92 | 136 | 2.0 | 8.0 | 0.00 | 0.00 | 0.00 | 62 | 1011.2 |
| 20260902235825 | 92 | 131 | 2.0 | 11.0 | 0.00 | 0.00 | 0.00 | 61 | 1011.2 |
| 20260902235326 | 92 | 51 | 3.0 | 11.0 | 0.00 | 0.00 | 0.00 | 61 | 1011.1 |
| 20260902235055 | 92 | 184 | 3.0 | 11.0 | 0.00 | 0.00 | 0.00 | 61 | 1011.1 |
| 20260902234555 | 93 | 113 | 3.0 | 11.0 | 0.00 | 0.00 | 0.00 | 62 | 1011.0 |
| 20260902233823 | 93 | 116 | 3.0 | 9.0 | 0.00 | 0.00 | 0.00 | 62 | 1010.9 |
| 20260902233320 | 93 | 179 | 2.0 | 10.0 | 0.00 | 0.00 | 0.00 | 63 | 1011.0 |
| 20260902232823 | 93 | 131 | 3.0 | 10.0 | 0.00 | 0.00 | 0.00 | 63 | 1011.0 |
| 20260902232321 | 93 | 177 | 3.0 | 10.0 | 0.00 | 0.00 | 0.00 | 63 | 1011.0 |
| 20260902231821 | 93 | 153 | 4.0 | 10.0 | 0.00 | 0.00 | 0.00 | 64 | 1011.0 |
| 20260902231322 | 93 | 130 | 3.0 | 10.0 | 0.00 | 0.00 | 0.00 | 64 | 1010.9 |
| 20260902231318 | 93 | 136 | 4.0 | 10.0 | 0.00 | 0.00 | 0.00 | 64 | 1011.0 |
| 20260902230546 | 94 | 147 | 4.0 | 11.0 | 0.00 | 0.00 | 0.00 | 63 | 1010.9 |
| 20260902225813 | 94 | 150 | 4.0 | 11.0 | 0.00 | 0.00 | 0.00 | 63 | 1010.9 |
| 20260902225547 | 94 | 111 | 3.0 | 8.0 | 0.00 | 0.00 | 0.00 | 63 | 1011.0 |
| 20260902224814 | 94 | 134 | 3.0 | 14.0 | 0.00 | 0.00 | 0.00 | 63 | 1011.0 |
| 20260902224313 | 94 | 198 | 3.0 | 14.0 | 0.00 | 0.00 | 0.00 | 63 | 1011.0 |
| 20260902224048 | 94 | 176 | 2.0 | 7.0 | 0.00 | 0.00 | 0.00 | 62 | 1011.0 |
| 20260902223314 | 94 | 133 | 2.0 | 6.0 | 0.00 | 0.00 | 0.00 | 62 | 1011.0 |
| 20260902222813 | 94 | 175 | 2.0 | 6.0 | 0.00 | 0.00 | 0.00 | 63 | 1011.0 |
| 20260902222316 | 94 | 206 | 3.0 | 9.0 | 0.00 | 0.00 | 0.00 | 63 | 1011.0 |
| 20260902221813 | 94 | 217 | 3.0 | 9.0 | 0.00 | 0.00 | 0.00 | 62 | 1011.1 |
| 20260902221313 | 94 | 131 | 2.0 | 10.0 | 0.00 | 0.00 | 0.00 | 61 | 1011.1 |
| 20260902221043 | 94 | 170 | 3.0 | 10.0 | 0.00 | 0.00 | 0.00 | 61 | 1011.0 |
| 20260902220314 | 94 | 119 | 3.0 | 10.0 | 0.00 | 0.00 | 0.00 | 61 | 1011.1 |
| 20260902215815 | 94 | 182 | 3.0 | 10.0 | 0.00 | 0.00 | 0.00 | 62 | 1011.0 |
| 20260902215315 | 94 | 134 | 2.0 | 11.0 | 0.00 | 0.00 | 0.00 | 62 | 1011.0 |
| 20260902214814 | 94 | 163 | 2.0 | 11.0 | 0.00 | 0.00 | 0.00 | 62 | 1011.1 |
| 20260902214311 | 94 | 150 | 3.0 | 12.0 | 0.00 | 0.00 | 0.00 | 62 | 1011.1 |
| 20260902213811 | 94 | 164 | 2.0 | 12.0 | 0.00 | 0.00 | 0.00 | 62 | 1011.2 |
| 20260902213313 | 94 | 117 | 2.0 | 8.0 | 0.00 | 0.00 | 0.00 | 63 | 1011.2 |
| 20260902212812 | 94 | 159 | 2.0 | 8.0 | 0.00 | 0.00 | 0.00 | 62 | 1011.3 |
| 20260902212311 | 94 | 147 | 2.0 | 8.0 | 0.00 | 0.00 | 0.00 | 62 | 1011.3 |
| 20260902211810 | 94 | 156 | 2.0 | 8.0 | 0.00 | 0.00 | 0.00 | 63 | 1011.2 |
| 20260902211307 | 94 | 123 | 2.0 | 8.0 | 0.00 | 0.00 | 0.00 | 64 | 1011.3 |
| 20260902210807 | 95 | 273 | 2.0 | 8.0 | 0.00 | 0.00 | 0.00 | 62 | 1011.3 |
| 20260902210541 | 94 | 157 | 1.0 | 10.0 | 0.00 | 0.00 | 0.00 | 63 | 1011.4 |
| 20260902210037 | 95 | 124 | 1.0 | 10.0 | 0.00 | 0.00 | 0.00 | 64 | 1011.4 |
| 20260902205307 | 94 | 161 | 2.0 | 10.0 | 0.00 | 0.00 | 0.00 | 64 | 1011.4 |
| 20260902204805 | 94 | 168 | 3.0 | 10.0 | 0.00 | 0.00 | 0.00 | 61 | 1011.5 |
| 20260902204303 | 94 | 243 | 2.0 | 7.0 | 0.00 | 0.00 | 0.00 | 63 | 1011.5 |
| 20260902203802 | 94 | 150 | 2.0 | 5.0 | 0.00 | 0.00 | 0.00 | 64 | 1011.6 |
| 20260902203304 | 94 | 159 | 2.0 | 6.0 | 0.00 | 0.00 | 0.00 | 64 | 1011.7 |
| 20260902202756 | 95 | 142 | 2.0 | 8.0 | 0.00 | 0.00 | 0.00 | 62 | 1011.8 |
| 20260902202256 | 95 | 185 | 2.0 | 8.0 | 0.00 | 0.00 | 0.00 | 63 | 1011.8 |
| 20260902201755 | 96 | 207 | 2.0 | 8.0 | 0.00 | 0.00 | 0.00 | 61 | 1011.8 |
| 20260902201526 | 96 | 162 | 2.0 | 8.0 | 0.00 | 0.00 | 0.00 | 65 | 1011.8 |
| 20260902200755 | 95 | 262 | 2.0 | 8.0 | 0.00 | 0.00 | 0.00 | 66 | 1011.8 |
| 20260902200253 | 95 | 264 | 2.0 | 8.0 | 0.00 | 0.00 | 0.00 | 64 | 1012.0 |
| 20260902195747 | 95 | 83 | 2.0 | 8.0 | 0.00 | 0.00 | 0.00 | 62 | 1012.1 |
| 20260902195247 | 95 | 246 | 2.0 | 8.0 | 0.00 | 0.00 | 0.00 | 64 | 1012.1 |
| 20260902194742 | 95 | 214 | 3.0 | 9.0 | 0.00 | 0.00 | 0.00 | 61 | 1012.2 |
| 20260902194244 | 95 | 277 | 2.0 | 9.0 | 0.00 | 0.00 | 0.00 | 63 | 1012.3 |
| 20260902193740 | 95 | 227 | 2.0 | 5.0 | 0.00 | 0.00 | 0.00 | 63 | 1012.5 |
| 20260902193240 | 95 | 154 | 2.0 | 5.0 | 0.00 | 0.00 | 0.00 | 65 | 1012.5 |
| 20260902192745 | 95 | 355 | 2.0 | 8.0 | 0.00 | 0.00 | 0.00 | 61 | 1012.6 |
| 20260902192741 | 95 | 161 | 2.0 | 8.0 | 0.00 | 0.00 | 0.00 | 64 | 1012.5 |
| 20260902191737 | 94 | 122 | 2.0 | 8.0 | 0.00 | 0.00 | 0.00 | 61 | 1012.6 |
| 20260902191235 | 94 | 148 | 2.0 | 8.0 | 0.00 | 0.00 | 0.00 | 65 | 1012.6 |
| 20260902190735 | 93 | 30 | 2.0 | 4.0 | 0.00 | 0.00 | 0.00 | 65 | 1012.6 |
| 20260902190232 | 93 | 243 | 2.0 | 8.0 | 0.00 | 0.00 | 0.00 | 68 | 1012.7 |
| 20260902185733 | 93 | 281 | 2.0 | 8.0 | 0.00 | 0.00 | 0.00 | 64 | 1012.8 |
| 20260902185504 | 94 | 262 | 2.0 | 4.0 | 0.00 | 0.00 | 0.00 | 64 | 1012.9 |
| 20260902184730 | 94 | 205 | 2.0 | 4.0 | 0.00 | 0.00 | 0.00 | 64 | 1013.0 |
| 20260902184232 | 94 | 202 | 2.0 | 8.0 | 0.00 | 0.00 | 0.00 | 65 | 1013.1 |
| 20260902183959 | 94 | 238 | 3.0 | 8.0 | 0.00 | 0.00 | 0.00 | 65 | 1013.1 |
| 20260902183227 | 94 | 153 | 2.0 | 7.0 | 0.00 | 0.00 | 0.00 | 65 | 1013.3 |
| 20260902182728 | 94 | 269 | 2.0 | 10.0 | 0.00 | 0.00 | 0.00 | 66 | 1013.4 |
| 20260902182224 | 93 | 132 | 2.0 | 10.0 | 0.00 | 0.00 | 0.00 | 67 | 1013.5 |
| 20260902181726 | 92 | 159 | 3.0 | 10.0 | 0.00 | 0.00 | 0.00 | 69 | 1013.5 |
| 20260902181451 | 92 | 255 | 3.0 | 10.0 | 0.00 | 0.00 | 0.00 | 68 | 1013.7 |
| 20260902180720 | 92 | 308 | 2.0 | 10.0 | 0.00 | 0.00 | 0.00 | 68 | 1013.8 |
| 20260902180220 | 92 | 207 | 2.0 | 10.0 | 0.00 | 0.00 | 0.00 | 68 | 1013.9 |
| 20260902175718 | 91 | 13 | 2.0 | 9.0 | 0.00 | 0.00 | 0.00 | 70 | 1014.0 |
| 20260902175219 | 91 | 265 | 2.0 | 5.0 | 0.00 | 0.00 | 0.00 | 70 | 1014.0 |
| 20260902174716 | 91 | 183 | 3.0 | 10.0 | 0.00 | 0.00 | 0.00 | 73 | 1014.1 |
| 20260902174216 | 91 | 251 | 3.0 | 10.0 | 0.00 | 0.00 | 0.00 | 72 | 1014.3 |
| 20260902173716 | 91 | 208 | 2.0 | 7.0 | 0.00 | 0.00 | 0.00 | 72 | 1014.3 |
| 20260902173216 | 90 | 45 | 2.0 | 5.0 | 0.00 | 0.00 | 0.00 | 74 | 1014.4 |
| 20260902172715 | 90 | 264 | 2.0 | 5.0 | 0.00 | 0.00 | 0.00 | 73 | 1014.5 |
| 20260902172214 | 90 | 142 | 2.0 | 6.0 | 0.00 | 0.00 | 0.00 | 75 | 1014.6 |
| 20260902171717 | 89 | 259 | 2.0 | 6.0 | 0.00 | 0.00 | 0.00 | 75 | 1014.6 |